sensor_id;sensor_type;location;lat;lon;timestamp;P1;durP1;ratioP1;P2;durP2;ratioP2
6825;SDS011;3451;52.476;13.316;2022-07-23T00:01:24;6.07;;;4.37;;
6825;SDS011;3451;52.476;13.316;2022-07-23T00:03:53;7.40;;;5.00;;
6825;SDS011;3451;52.476;13.316;2022-07-23T00:06:21;7.20;;;4.50;;
6825;SDS011;3451;52.476;13.316;2022-07-23T00:08:48;7.60;;;4.93;;
6825;SDS011;3451;52.476;13.316;2022-07-23T00:11:15;7.30;;;5.00;;
6825;SDS011;3451;52.476;13.316;2022-07-23T00:13:41;7.03;;;4.73;;
6825;SDS011;3451;52.476;13.316;2022-07-23T00:16:08;8.33;;;5.13;;
6825;SDS011;3451;52.476;13.316;2022-07-23T00:18:35;5.97;;;4.73;;
6825;SDS011;3451;52.476;13.316;2022-07-23T00:21:01;8.63;;;5.30;;
6825;SDS011;3451;52.476;13.316;2022-07-23T00:23:28;7.20;;;4.90;;
6825;SDS011;3451;52.476;13.316;2022-07-23T00:25:55;7.80;;;5.50;;
6825;SDS011;3451;52.476;13.316;2022-07-23T00:28:21;6.37;;;4.47;;
6825;SDS011;3451;52.476;13.316;2022-07-23T00:30:48;8.73;;;5.13;;
6825;SDS011;3451;52.476;13.316;2022-07-23T00:33:14;6.60;;;4.67;;
6825;SDS011;3451;52.476;13.316;2022-07-23T00:35:41;8.80;;;4.60;;
6825;SDS011;3451;52.476;13.316;2022-07-23T00:38:09;6.03;;;4.80;;
6825;SDS011;3451;52.476;13.316;2022-07-23T00:40:36;5.83;;;4.50;;
6825;SDS011;3451;52.476;13.316;2022-07-23T00:43:04;7.53;;;5.13;;
6825;SDS011;3451;52.476;13.316;2022-07-23T00:45:31;5.80;;;4.90;;
6825;SDS011;3451;52.476;13.316;2022-07-23T00:47:57;6.93;;;5.13;;
6825;SDS011;3451;52.476;13.316;2022-07-23T00:50:24;6.93;;;5.03;;
6825;SDS011;3451;52.476;13.316;2022-07-23T00:52:51;10.10;;;5.77;;
6825;SDS011;3451;52.476;13.316;2022-07-23T00:55:18;5.43;;;4.83;;
6825;SDS011;3451;52.476;13.316;2022-07-23T00:57:45;5.80;;;4.57;;
6825;SDS011;3451;52.476;13.316;2022-07-23T01:00:13;6.10;;;4.67;;
6825;SDS011;3451;52.476;13.316;2022-07-23T01:02:40;5.53;;;4.30;;
6825;SDS011;3451;52.476;13.316;2022-07-23T01:05:09;7.27;;;4.80;;
6825;SDS011;3451;52.476;13.316;2022-07-23T01:07:35;6.20;;;5.10;;
6825;SDS011;3451;52.476;13.316;2022-07-23T01:10:03;6.20;;;4.50;;
6825;SDS011;3451;52.476;13.316;2022-07-23T01:12:31;6.30;;;4.97;;
6825;SDS011;3451;52.476;13.316;2022-07-23T01:14:58;7.47;;;4.73;;
6825;SDS011;3451;52.476;13.316;2022-07-23T01:17:26;5.00;;;4.50;;
6825;SDS011;3451;52.476;13.316;2022-07-23T01:19:54;10.00;;;5.83;;
6825;SDS011;3451;52.476;13.316;2022-07-23T01:22:20;6.83;;;4.80;;
6825;SDS011;3451;52.476;13.316;2022-07-23T01:24:47;6.53;;;4.40;;
6825;SDS011;3451;52.476;13.316;2022-07-23T01:27:14;7.83;;;5.17;;
6825;SDS011;3451;52.476;13.316;2022-07-23T01:29:40;7.07;;;4.77;;
6825;SDS011;3451;52.476;13.316;2022-07-23T01:32:07;6.03;;;4.90;;
6825;SDS011;3451;52.476;13.316;2022-07-23T01:34:33;7.20;;;4.53;;
6825;SDS011;3451;52.476;13.316;2022-07-23T01:37:00;6.73;;;4.67;;
6825;SDS011;3451;52.476;13.316;2022-07-23T01:39:26;6.50;;;5.10;;
6825;SDS011;3451;52.476;13.316;2022-07-23T01:41:53;10.67;;;5.33;;
6825;SDS011;3451;52.476;13.316;2022-07-23T01:44:19;6.27;;;4.90;;
6825;SDS011;3451;52.476;13.316;2022-07-23T01:46:46;7.23;;;4.63;;
6825;SDS011;3451;52.476;13.316;2022-07-23T01:49:12;6.40;;;4.53;;
6825;SDS011;3451;52.476;13.316;2022-07-23T01:51:39;5.37;;;4.87;;
6825;SDS011;3451;52.476;13.316;2022-07-23T01:54:29;7.10;;;4.60;;
6825;SDS011;3451;52.476;13.316;2022-07-23T01:56:57;7.47;;;5.43;;
6825;SDS011;3451;52.476;13.316;2022-07-23T01:59:25;6.80;;;5.47;;
6825;SDS011;3451;52.476;13.316;2022-07-23T02:01:52;6.20;;;4.67;;
6825;SDS011;3451;52.476;13.316;2022-07-23T02:04:22;7.73;;;5.13;;
6825;SDS011;3451;52.476;13.316;2022-07-23T02:06:50;8.13;;;5.53;;
6825;SDS011;3451;52.476;13.316;2022-07-23T02:09:17;7.03;;;4.93;;
6825;SDS011;3451;52.476;13.316;2022-07-23T02:11:44;7.07;;;5.77;;
6825;SDS011;3451;52.476;13.316;2022-07-23T02:14:11;9.53;;;5.10;;
6825;SDS011;3451;52.476;13.316;2022-07-23T02:16:37;8.00;;;5.13;;
6825;SDS011;3451;52.476;13.316;2022-07-23T02:19:04;5.93;;;4.70;;
6825;SDS011;3451;52.476;13.316;2022-07-23T02:21:31;7.67;;;4.80;;
6825;SDS011;3451;52.476;13.316;2022-07-23T02:23:57;6.03;;;4.53;;
6825;SDS011;3451;52.476;13.316;2022-07-23T02:26:24;6.13;;;5.03;;
6825;SDS011;3451;52.476;13.316;2022-07-23T02:28:50;8.63;;;5.27;;
6825;SDS011;3451;52.476;13.316;2022-07-23T02:31:19;6.83;;;4.33;;
6825;SDS011;3451;52.476;13.316;2022-07-23T02:33:46;7.33;;;5.10;;
6825;SDS011;3451;52.476;13.316;2022-07-23T02:36:12;4.90;;;4.03;;
6825;SDS011;3451;52.476;13.316;2022-07-23T02:38:39;6.70;;;4.53;;
6825;SDS011;3451;52.476;13.316;2022-07-23T02:41:05;8.10;;;5.00;;
6825;SDS011;3451;52.476;13.316;2022-07-23T02:43:31;6.17;;;4.57;;
6825;SDS011;3451;52.476;13.316;2022-07-23T02:45:58;7.83;;;4.93;;
6825;SDS011;3451;52.476;13.316;2022-07-23T02:48:24;7.03;;;4.60;;
6825;SDS011;3451;52.476;13.316;2022-07-23T02:50:51;7.03;;;5.00;;
6825;SDS011;3451;52.476;13.316;2022-07-23T02:53:18;8.50;;;4.97;;
6825;SDS011;3451;52.476;13.316;2022-07-23T02:55:45;6.57;;;4.70;;
6825;SDS011;3451;52.476;13.316;2022-07-23T02:58:11;7.00;;;5.10;;
6825;SDS011;3451;52.476;13.316;2022-07-23T03:00:37;9.70;;;4.77;;
6825;SDS011;3451;52.476;13.316;2022-07-23T03:03:04;7.63;;;5.20;;
6825;SDS011;3451;52.476;13.316;2022-07-23T03:05:30;8.00;;;4.90;;
6825;SDS011;3451;52.476;13.316;2022-07-23T03:07:57;6.60;;;5.23;;
6825;SDS011;3451;52.476;13.316;2022-07-23T03:10:23;9.13;;;5.33;;
6825;SDS011;3451;52.476;13.316;2022-07-23T03:12:50;8.50;;;5.60;;
6825;SDS011;3451;52.476;13.316;2022-07-23T03:15:16;8.50;;;4.87;;
6825;SDS011;3451;52.476;13.316;2022-07-23T03:17:43;8.33;;;5.93;;
6825;SDS011;3451;52.476;13.316;2022-07-23T03:20:09;10.40;;;5.10;;
6825;SDS011;3451;52.476;13.316;2022-07-23T03:22:36;8.67;;;5.27;;
6825;SDS011;3451;52.476;13.316;2022-07-23T03:25:02;7.30;;;5.10;;
6825;SDS011;3451;52.476;13.316;2022-07-23T03:27:29;10.40;;;5.60;;
6825;SDS011;3451;52.476;13.316;2022-07-23T03:29:57;9.80;;;5.47;;
6825;SDS011;3451;52.476;13.316;2022-07-23T03:32:25;5.87;;;4.60;;
6825;SDS011;3451;52.476;13.316;2022-07-23T03:34:53;9.17;;;5.10;;
6825;SDS011;3451;52.476;13.316;2022-07-23T03:37:20;10.10;;;4.60;;
6825;SDS011;3451;52.476;13.316;2022-07-23T03:39:47;9.67;;;4.70;;
6825;SDS011;3451;52.476;13.316;2022-07-23T03:42:13;8.40;;;4.30;;
6825;SDS011;3451;52.476;13.316;2022-07-23T03:44:40;6.93;;;4.03;;
6825;SDS011;3451;52.476;13.316;2022-07-23T03:47:06;8.87;;;4.40;;
6825;SDS011;3451;52.476;13.316;2022-07-23T03:49:33;7.63;;;4.23;;
6825;SDS011;3451;52.476;13.316;2022-07-23T03:51:59;7.47;;;4.00;;
6825;SDS011;3451;52.476;13.316;2022-07-23T03:54:26;6.27;;;3.70;;
6825;SDS011;3451;52.476;13.316;2022-07-23T03:56:52;7.10;;;3.57;;
6825;SDS011;3451;52.476;13.316;2022-07-23T03:59:18;6.07;;;2.93;;
6825;SDS011;3451;52.476;13.316;2022-07-23T04:01:49;4.93;;;2.93;;
6825;SDS011;3451;52.476;13.316;2022-07-23T04:04:15;8.37;;;3.30;;
6825;SDS011;3451;52.476;13.316;2022-07-23T04:06:42;6.40;;;3.10;;
6825;SDS011;3451;52.476;13.316;2022-07-23T04:09:08;4.97;;;2.77;;
6825;SDS011;3451;52.476;13.316;2022-07-23T04:11:35;5.53;;;2.57;;
6825;SDS011;3451;52.476;13.316;2022-07-23T04:14:01;4.70;;;2.40;;
6825;SDS011;3451;52.476;13.316;2022-07-23T04:16:28;5.73;;;2.60;;
6825;SDS011;3451;52.476;13.316;2022-07-23T04:18:54;3.80;;;2.33;;
6825;SDS011;3451;52.476;13.316;2022-07-23T04:21:21;4.33;;;2.40;;
6825;SDS011;3451;52.476;13.316;2022-07-23T04:23:47;3.07;;;2.03;;
6825;SDS011;3451;52.476;13.316;2022-07-23T04:26:14;6.90;;;2.57;;
6825;SDS011;3451;52.476;13.316;2022-07-23T04:28:43;4.80;;;2.23;;
6825;SDS011;3451;52.476;13.316;2022-07-23T04:31:09;3.50;;;2.27;;
6825;SDS011;3451;52.476;13.316;2022-07-23T04:33:36;7.90;;;3.20;;
6825;SDS011;3451;52.476;13.316;2022-07-23T04:36:03;6.40;;;2.63;;
6825;SDS011;3451;52.476;13.316;2022-07-23T04:38:29;5.27;;;2.53;;
6825;SDS011;3451;52.476;13.316;2022-07-23T04:40:56;6.17;;;2.60;;
6825;SDS011;3451;52.476;13.316;2022-07-23T04:43:22;5.60;;;2.90;;
6825;SDS011;3451;52.476;13.316;2022-07-23T04:45:49;6.43;;;2.17;;
6825;SDS011;3451;52.476;13.316;2022-07-23T04:48:16;6.50;;;2.30;;
6825;SDS011;3451;52.476;13.316;2022-07-23T04:50:43;6.83;;;2.83;;
6825;SDS011;3451;52.476;13.316;2022-07-23T04:53:10;6.47;;;2.13;;
6825;SDS011;3451;52.476;13.316;2022-07-23T04:55:36;5.07;;;2.50;;
6825;SDS011;3451;52.476;13.316;2022-07-23T04:58:03;6.67;;;2.53;;
6825;SDS011;3451;52.476;13.316;2022-07-23T05:00:29;9.50;;;2.73;;
6825;SDS011;3451;52.476;13.316;2022-07-23T05:02:55;7.43;;;2.90;;
6825;SDS011;3451;52.476;13.316;2022-07-23T05:05:22;5.80;;;2.70;;
6825;SDS011;3451;52.476;13.316;2022-07-23T05:07:49;7.93;;;3.20;;
6825;SDS011;3451;52.476;13.316;2022-07-23T05:10:15;5.80;;;2.93;;
6825;SDS011;3451;52.476;13.316;2022-07-23T05:12:42;6.73;;;2.70;;
6825;SDS011;3451;52.476;13.316;2022-07-23T05:15:08;6.67;;;3.20;;
6825;SDS011;3451;52.476;13.316;2022-07-23T05:17:34;9.07;;;2.93;;
6825;SDS011;3451;52.476;13.316;2022-07-23T05:20:01;5.60;;;2.60;;
6825;SDS011;3451;52.476;13.316;2022-07-23T05:22:28;6.97;;;3.07;;
6825;SDS011;3451;52.476;13.316;2022-07-23T05:24:54;7.80;;;2.73;;
6825;SDS011;3451;52.476;13.316;2022-07-23T05:27:21;5.43;;;2.80;;
6825;SDS011;3451;52.476;13.316;2022-07-23T05:29:47;5.70;;;2.70;;
6825;SDS011;3451;52.476;13.316;2022-07-23T05:32:14;4.80;;;2.83;;
6825;SDS011;3451;52.476;13.316;2022-07-23T05:34:40;7.97;;;2.90;;
6825;SDS011;3451;52.476;13.316;2022-07-23T05:37:07;7.90;;;3.00;;
6825;SDS011;3451;52.476;13.316;2022-07-23T05:39:33;9.13;;;3.10;;
6825;SDS011;3451;52.476;13.316;2022-07-23T05:42:00;7.93;;;2.83;;
6825;SDS011;3451;52.476;13.316;2022-07-23T05:44:26;5.57;;;3.40;;
6825;SDS011;3451;52.476;13.316;2022-07-23T05:46:59;6.03;;;3.07;;
6825;SDS011;3451;52.476;13.316;2022-07-23T05:49:26;6.20;;;3.10;;
6825;SDS011;3451;52.476;13.316;2022-07-23T05:51:52;8.33;;;3.17;;
6825;SDS011;3451;52.476;13.316;2022-07-23T05:54:19;7.97;;;3.03;;
6825;SDS011;3451;52.476;13.316;2022-07-23T05:56:45;8.80;;;2.80;;
6825;SDS011;3451;52.476;13.316;2022-07-23T05:59:12;4.73;;;2.87;;
6825;SDS011;3451;52.476;13.316;2022-07-23T06:01:39;5.60;;;2.50;;
6825;SDS011;3451;52.476;13.316;2022-07-23T06:04:06;5.37;;;2.60;;
6825;SDS011;3451;52.476;13.316;2022-07-23T06:06:32;8.13;;;2.70;;
6825;SDS011;3451;52.476;13.316;2022-07-23T06:08:59;7.47;;;3.30;;
6825;SDS011;3451;52.476;13.316;2022-07-23T06:11:25;6.30;;;2.90;;
6825;SDS011;3451;52.476;13.316;2022-07-23T06:13:52;7.93;;;3.27;;
6825;SDS011;3451;52.476;13.316;2022-07-23T06:16:18;7.10;;;3.23;;
6825;SDS011;3451;52.476;13.316;2022-07-23T06:18:45;7.87;;;3.47;;
6825;SDS011;3451;52.476;13.316;2022-07-23T06:21:11;11.63;;;3.43;;
6825;SDS011;3451;52.476;13.316;2022-07-23T06:23:58;4.07;;;2.80;;
6825;SDS011;3451;52.476;13.316;2022-07-23T06:26:24;8.63;;;3.47;;
6825;SDS011;3451;52.476;13.316;2022-07-23T06:28:51;6.80;;;3.70;;
6825;SDS011;3451;52.476;13.316;2022-07-23T06:31:17;7.13;;;3.70;;
6825;SDS011;3451;52.476;13.316;2022-07-23T06:33:44;5.73;;;3.10;;
6825;SDS011;3451;52.476;13.316;2022-07-23T06:36:10;5.97;;;3.17;;
6825;SDS011;3451;52.476;13.316;2022-07-23T06:38:36;5.27;;;3.03;;
6825;SDS011;3451;52.476;13.316;2022-07-23T06:41:03;5.30;;;3.50;;
6825;SDS011;3451;52.476;13.316;2022-07-23T06:43:30;9.00;;;3.30;;
6825;SDS011;3451;52.476;13.316;2022-07-23T06:45:57;8.37;;;3.63;;
6825;SDS011;3451;52.476;13.316;2022-07-23T06:48:23;9.17;;;3.87;;
6825;SDS011;3451;52.476;13.316;2022-07-23T06:50:50;7.93;;;3.93;;
6825;SDS011;3451;52.476;13.316;2022-07-23T06:53:18;7.37;;;3.70;;
6825;SDS011;3451;52.476;13.316;2022-07-23T06:55:45;5.07;;;3.33;;
6825;SDS011;3451;52.476;13.316;2022-07-23T06:58:11;7.43;;;3.83;;
6825;SDS011;3451;52.476;13.316;2022-07-23T07:00:40;6.07;;;3.77;;
6825;SDS011;3451;52.476;13.316;2022-07-23T07:03:07;6.63;;;3.33;;
6825;SDS011;3451;52.476;13.316;2022-07-23T07:05:33;8.20;;;3.57;;
6825;SDS011;3451;52.476;13.316;2022-07-23T07:08:00;7.13;;;4.00;;
6825;SDS011;3451;52.476;13.316;2022-07-23T07:10:26;6.17;;;3.60;;
6825;SDS011;3451;52.476;13.316;2022-07-23T07:12:52;9.40;;;3.83;;
6825;SDS011;3451;52.476;13.316;2022-07-23T07:15:19;7.50;;;4.90;;
6825;SDS011;3451;52.476;13.316;2022-07-23T07:17:45;5.97;;;4.20;;
6825;SDS011;3451;52.476;13.316;2022-07-23T07:20:12;5.90;;;3.90;;
6825;SDS011;3451;52.476;13.316;2022-07-23T07:22:38;6.37;;;4.20;;
6825;SDS011;3451;52.476;13.316;2022-07-23T07:25:06;8.30;;;4.13;;
6825;SDS011;3451;52.476;13.316;2022-07-23T07:27:33;7.60;;;4.17;;
6825;SDS011;3451;52.476;13.316;2022-07-23T07:29:59;8.40;;;4.10;;
6825;SDS011;3451;52.476;13.316;2022-07-23T07:32:26;7.40;;;3.73;;
6825;SDS011;3451;52.476;13.316;2022-07-23T07:35:12;6.07;;;3.60;;
6825;SDS011;3451;52.476;13.316;2022-07-23T07:37:39;8.80;;;4.27;;
6825;SDS011;3451;52.476;13.316;2022-07-23T07:40:06;12.37;;;6.30;;
6825;SDS011;3451;52.476;13.316;2022-07-23T07:42:33;12.93;;;8.77;;
6825;SDS011;3451;52.476;13.316;2022-07-23T07:44:59;11.57;;;6.60;;
6825;SDS011;3451;52.476;13.316;2022-07-23T07:47:26;7.93;;;4.37;;
6825;SDS011;3451;52.476;13.316;2022-07-23T07:49:52;5.97;;;4.17;;
6825;SDS011;3451;52.476;13.316;2022-07-23T07:52:19;8.90;;;4.60;;
6825;SDS011;3451;52.476;13.316;2022-07-23T07:54:45;7.27;;;4.63;;
6825;SDS011;3451;52.476;13.316;2022-07-23T07:57:12;8.47;;;4.80;;
6825;SDS011;3451;52.476;13.316;2022-07-23T07:59:39;7.63;;;5.43;;
6825;SDS011;3451;52.476;13.316;2022-07-23T08:02:06;7.90;;;5.23;;
6825;SDS011;3451;52.476;13.316;2022-07-23T08:04:32;6.00;;;4.20;;
6825;SDS011;3451;52.476;13.316;2022-07-23T08:06:59;8.53;;;4.33;;
6825;SDS011;3451;52.476;13.316;2022-07-23T08:09:25;7.83;;;4.60;;
6825;SDS011;3451;52.476;13.316;2022-07-23T08:11:52;8.63;;;4.50;;
6825;SDS011;3451;52.476;13.316;2022-07-23T08:14:19;7.53;;;4.40;;
6825;SDS011;3451;52.476;13.316;2022-07-23T08:16:45;8.73;;;5.23;;
6825;SDS011;3451;52.476;13.316;2022-07-23T08:19:32;16.40;;;11.43;;
6825;SDS011;3451;52.476;13.316;2022-07-23T08:21:58;11.37;;;6.80;;
6825;SDS011;3451;52.476;13.316;2022-07-23T08:24:25;8.30;;;4.00;;
6825;SDS011;3451;52.476;13.316;2022-07-23T08:26:51;9.57;;;5.23;;
6825;SDS011;3451;52.476;13.316;2022-07-23T08:29:17;9.63;;;5.87;;
6825;SDS011;3451;52.476;13.316;2022-07-23T08:31:50;6.67;;;4.47;;
6825;SDS011;3451;52.476;13.316;2022-07-23T08:34:16;7.60;;;4.77;;
6825;SDS011;3451;52.476;13.316;2022-07-23T08:36:43;8.13;;;4.87;;
6825;SDS011;3451;52.476;13.316;2022-07-23T08:39:09;7.73;;;3.83;;
6825;SDS011;3451;52.476;13.316;2022-07-23T08:41:36;5.17;;;3.20;;
6825;SDS011;3451;52.476;13.316;2022-07-23T08:44:06;5.67;;;2.87;;
6825;SDS011;3451;52.476;13.316;2022-07-23T08:46:34;5.80;;;3.03;;
6825;SDS011;3451;52.476;13.316;2022-07-23T08:49:08;10.07;;;7.27;;
6825;SDS011;3451;52.476;13.316;2022-07-23T08:51:35;8.33;;;4.07;;
6825;SDS011;3451;52.476;13.316;2022-07-23T08:54:01;10.50;;;6.03;;
6825;SDS011;3451;52.476;13.316;2022-07-23T08:56:29;8.63;;;4.17;;
6825;SDS011;3451;52.476;13.316;2022-07-23T08:58:55;10.70;;;2.90;;
6825;SDS011;3451;52.476;13.316;2022-07-23T09:01:22;6.17;;;2.70;;
6825;SDS011;3451;52.476;13.316;2022-07-23T09:03:48;5.00;;;2.50;;
6825;SDS011;3451;52.476;13.316;2022-07-23T09:06:15;6.17;;;2.47;;
6825;SDS011;3451;52.476;13.316;2022-07-23T09:08:42;9.27;;;3.20;;
6825;SDS011;3451;52.476;13.316;2022-07-23T09:11:11;5.37;;;2.43;;
6825;SDS011;3451;52.476;13.316;2022-07-23T09:13:51;4.90;;;2.90;;
6825;SDS011;3451;52.476;13.316;2022-07-23T09:16:23;6.13;;;2.77;;
6825;SDS011;3451;52.476;13.316;2022-07-23T09:21:29;5.27;;;2.70;;
6825;SDS011;3451;52.476;13.316;2022-07-23T09:24:03;6.23;;;2.67;;
6825;SDS011;3451;52.476;13.316;2022-07-23T09:26:41;6.93;;;3.00;;
6825;SDS011;3451;52.476;13.316;2022-07-23T09:29:20;4.57;;;2.70;;
6825;SDS011;3451;52.476;13.316;2022-07-23T09:31:53;5.43;;;3.50;;
6825;SDS011;3451;52.476;13.316;2022-07-23T09:34:33;9.43;;;5.13;;
6825;SDS011;3451;52.476;13.316;2022-07-23T09:39:42;4.73;;;2.63;;
6825;SDS011;3451;52.476;13.316;2022-07-23T09:42:27;5.50;;;3.87;;
6825;SDS011;3451;52.476;13.316;2022-07-23T09:44:58;6.13;;;2.90;;
6825;SDS011;3451;52.476;13.316;2022-07-23T09:47:26;5.53;;;2.70;;
6825;SDS011;3451;52.476;13.316;2022-07-23T09:50:07;5.77;;;3.53;;
6825;SDS011;3451;52.476;13.316;2022-07-23T09:52:37;6.20;;;2.70;;
6825;SDS011;3451;52.476;13.316;2022-07-23T09:55:10;6.23;;;2.90;;
6825;SDS011;3451;52.476;13.316;2022-07-23T09:57:36;5.23;;;2.90;;
6825;SDS011;3451;52.476;13.316;2022-07-23T10:00:07;4.30;;;2.77;;
6825;SDS011;3451;52.476;13.316;2022-07-23T10:02:36;6.80;;;3.10;;
6825;SDS011;3451;52.476;13.316;2022-07-23T10:05:04;4.10;;;3.03;;
6825;SDS011;3451;52.476;13.316;2022-07-23T10:07:31;5.77;;;2.57;;
6825;SDS011;3451;52.476;13.316;2022-07-23T10:10:01;5.93;;;2.90;;
6825;SDS011;3451;52.476;13.316;2022-07-23T10:12:29;11.90;;;3.97;;
6825;SDS011;3451;52.476;13.316;2022-07-23T10:15:03;10.63;;;7.43;;
6825;SDS011;3451;52.476;13.316;2022-07-23T10:17:32;8.60;;;6.23;;
6825;SDS011;3451;52.476;13.316;2022-07-23T10:19:58;7.30;;;4.80;;
6825;SDS011;3451;52.476;13.316;2022-07-23T10:22:26;6.50;;;3.20;;
6825;SDS011;3451;52.476;13.316;2022-07-23T10:24:58;5.63;;;3.67;;
6825;SDS011;3451;52.476;13.316;2022-07-23T10:27:43;6.90;;;4.00;;
6825;SDS011;3451;52.476;13.316;2022-07-23T10:30:20;7.73;;;5.10;;
6825;SDS011;3451;52.476;13.316;2022-07-23T10:33:01;5.67;;;3.13;;
6825;SDS011;3451;52.476;13.316;2022-07-23T10:39:18;7.60;;;3.37;;
6825;SDS011;3451;52.476;13.316;2022-07-23T10:41:50;6.33;;;3.40;;
6825;SDS011;3451;52.476;13.316;2022-07-23T10:44:17;9.90;;;5.20;;
6825;SDS011;3451;52.476;13.316;2022-07-23T10:46:57;4.33;;;2.90;;
6825;SDS011;3451;52.476;13.316;2022-07-23T10:49:44;5.30;;;3.17;;
6825;SDS011;3451;52.476;13.316;2022-07-23T10:57:22;6.20;;;2.70;;
6825;SDS011;3451;52.476;13.316;2022-07-23T11:02:34;4.30;;;2.60;;
6825;SDS011;3451;52.476;13.316;2022-07-23T11:05:09;4.97;;;3.37;;
6825;SDS011;3451;52.476;13.316;2022-07-23T11:08:09;4.00;;;2.90;;
6825;SDS011;3451;52.476;13.316;2022-07-23T11:16:04;3.50;;;2.50;;
6825;SDS011;3451;52.476;13.316;2022-07-23T11:31:58;5.07;;;2.83;;
6825;SDS011;3451;52.476;13.316;2022-07-23T11:34:45;4.83;;;2.50;;
6825;SDS011;3451;52.476;13.316;2022-07-23T11:37:33;6.17;;;2.30;;
6825;SDS011;3451;52.476;13.316;2022-07-23T11:40:05;5.03;;;2.90;;
6825;SDS011;3451;52.476;13.316;2022-07-23T11:42:39;5.20;;;2.70;;
6825;SDS011;3451;52.476;13.316;2022-07-23T11:45:16;3.83;;;2.63;;
6825;SDS011;3451;52.476;13.316;2022-07-23T11:47:43;4.87;;;2.57;;
6825;SDS011;3451;52.476;13.316;2022-07-23T11:50:09;4.90;;;2.67;;
6825;SDS011;3451;52.476;13.316;2022-07-23T11:52:36;5.47;;;2.70;;
6825;SDS011;3451;52.476;13.316;2022-07-23T11:55:04;4.83;;;2.60;;
6825;SDS011;3451;52.476;13.316;2022-07-23T11:57:36;7.37;;;2.90;;
6825;SDS011;3451;52.476;13.316;2022-07-23T12:00:12;5.20;;;2.53;;
6825;SDS011;3451;52.476;13.316;2022-07-23T12:03:05;4.77;;;2.47;;
6825;SDS011;3451;52.476;13.316;2022-07-23T12:05:33;4.63;;;2.23;;
6825;SDS011;3451;52.476;13.316;2022-07-23T12:08:03;4.83;;;2.50;;
6825;SDS011;3451;52.476;13.316;2022-07-23T12:13:08;3.07;;;2.53;;
6825;SDS011;3451;52.476;13.316;2022-07-23T12:15:40;4.07;;;2.63;;
6825;SDS011;3451;52.476;13.316;2022-07-23T12:18:09;5.70;;;2.57;;
6825;SDS011;3451;52.476;13.316;2022-07-23T12:20:38;4.17;;;2.43;;
6825;SDS011;3451;52.476;13.316;2022-07-23T12:23:08;3.70;;;2.50;;
6825;SDS011;3451;52.476;13.316;2022-07-23T12:25:37;5.47;;;2.90;;
6825;SDS011;3451;52.476;13.316;2022-07-23T12:28:12;3.87;;;2.50;;
6825;SDS011;3451;52.476;13.316;2022-07-23T12:33:23;5.03;;;2.93;;
6825;SDS011;3451;52.476;13.316;2022-07-23T12:35:52;3.80;;;2.70;;
6825;SDS011;3451;52.476;13.316;2022-07-23T12:38:21;6.40;;;3.17;;
6825;SDS011;3451;52.476;13.316;2022-07-23T12:40:55;5.87;;;3.03;;
6825;SDS011;3451;52.476;13.316;2022-07-23T12:43:27;4.27;;;2.93;;
6825;SDS011;3451;52.476;13.316;2022-07-23T12:45:55;5.07;;;2.60;;
6825;SDS011;3451;52.476;13.316;2022-07-23T12:48:38;5.03;;;2.70;;
6825;SDS011;3451;52.476;13.316;2022-07-23T12:53:47;4.53;;;3.50;;
6825;SDS011;3451;52.476;13.316;2022-07-23T12:56:38;5.77;;;3.00;;
6825;SDS011;3451;52.476;13.316;2022-07-23T12:59:07;5.43;;;3.50;;
6825;SDS011;3451;52.476;13.316;2022-07-23T13:01:44;4.77;;;3.23;;
6825;SDS011;3451;52.476;13.316;2022-07-23T13:04:19;3.17;;;2.87;;
6825;SDS011;3451;52.476;13.316;2022-07-23T13:06:51;5.90;;;3.17;;
6825;SDS011;3451;52.476;13.316;2022-07-23T13:09:20;5.97;;;2.97;;
6825;SDS011;3451;52.476;13.316;2022-07-23T13:11:50;3.03;;;2.70;;
6825;SDS011;3451;52.476;13.316;2022-07-23T13:14:22;4.63;;;3.40;;
6825;SDS011;3451;52.476;13.316;2022-07-23T13:16:49;4.70;;;3.00;;
6825;SDS011;3451;52.476;13.316;2022-07-23T13:19:18;4.93;;;3.27;;
6825;SDS011;3451;52.476;13.316;2022-07-23T13:21:46;3.60;;;2.73;;
6825;SDS011;3451;52.476;13.316;2022-07-23T13:24:14;5.13;;;3.20;;
6825;SDS011;3451;52.476;13.316;2022-07-23T13:26:40;4.37;;;3.30;;
6825;SDS011;3451;52.476;13.316;2022-07-23T13:29:07;7.03;;;3.70;;
6825;SDS011;3451;52.476;13.316;2022-07-23T13:31:36;4.63;;;3.40;;
6825;SDS011;3451;52.476;13.316;2022-07-23T13:34:04;6.73;;;4.83;;
6825;SDS011;3451;52.476;13.316;2022-07-23T13:36:33;5.47;;;3.93;;
6825;SDS011;3451;52.476;13.316;2022-07-23T13:39:00;9.90;;;7.23;;
6825;SDS011;3451;52.476;13.316;2022-07-23T13:41:27;13.23;;;8.87;;
6825;SDS011;3451;52.476;13.316;2022-07-23T13:43:54;6.00;;;4.83;;
6825;SDS011;3451;52.476;13.316;2022-07-23T13:46:23;4.33;;;3.37;;
6825;SDS011;3451;52.476;13.316;2022-07-23T13:48:50;5.43;;;3.10;;
6825;SDS011;3451;52.476;13.316;2022-07-23T13:51:16;5.03;;;3.10;;
6825;SDS011;3451;52.476;13.316;2022-07-23T13:53:45;4.50;;;2.80;;
6825;SDS011;3451;52.476;13.316;2022-07-23T13:56:11;4.87;;;3.27;;
6825;SDS011;3451;52.476;13.316;2022-07-23T13:58:38;5.93;;;2.70;;
6825;SDS011;3451;52.476;13.316;2022-07-23T14:01:06;5.47;;;3.03;;
6825;SDS011;3451;52.476;13.316;2022-07-23T14:03:33;3.67;;;2.73;;
6825;SDS011;3451;52.476;13.316;2022-07-23T14:06:00;4.80;;;2.50;;
6825;SDS011;3451;52.476;13.316;2022-07-23T14:08:26;3.43;;;2.60;;
6825;SDS011;3451;52.476;13.316;2022-07-23T14:10:53;3.20;;;2.43;;
6825;SDS011;3451;52.476;13.316;2022-07-23T14:13:19;4.10;;;2.10;;
6825;SDS011;3451;52.476;13.316;2022-07-23T14:15:47;4.47;;;2.33;;
6825;SDS011;3451;52.476;13.316;2022-07-23T14:18:14;7.30;;;2.87;;
6825;SDS011;3451;52.476;13.316;2022-07-23T14:20:42;6.07;;;2.73;;
6825;SDS011;3451;52.476;13.316;2022-07-23T14:23:08;6.53;;;3.17;;
6825;SDS011;3451;52.476;13.316;2022-07-23T14:25:38;6.17;;;2.60;;
6825;SDS011;3451;52.476;13.316;2022-07-23T14:28:04;8.53;;;3.63;;
6825;SDS011;3451;52.476;13.316;2022-07-23T14:30:31;5.03;;;3.70;;
6825;SDS011;3451;52.476;13.316;2022-07-23T14:33:00;4.90;;;2.43;;
6825;SDS011;3451;52.476;13.316;2022-07-23T14:35:26;5.53;;;3.17;;
6825;SDS011;3451;52.476;13.316;2022-07-23T14:37:53;6.80;;;4.37;;
6825;SDS011;3451;52.476;13.316;2022-07-23T14:40:20;6.67;;;3.90;;
6825;SDS011;3451;52.476;13.316;2022-07-23T14:42:48;4.17;;;3.00;;
6825;SDS011;3451;52.476;13.316;2022-07-23T14:45:15;3.80;;;3.00;;
6825;SDS011;3451;52.476;13.316;2022-07-23T14:47:44;3.07;;;2.17;;
6825;SDS011;3451;52.476;13.316;2022-07-23T14:50:13;9.70;;;6.43;;
6825;SDS011;3451;52.476;13.316;2022-07-23T14:52:40;6.23;;;4.30;;
6825;SDS011;3451;52.476;13.316;2022-07-23T14:55:07;5.60;;;2.60;;
6825;SDS011;3451;52.476;13.316;2022-07-23T14:57:34;4.60;;;2.40;;
6825;SDS011;3451;52.476;13.316;2022-07-23T15:00:01;7.20;;;5.97;;
6825;SDS011;3451;52.476;13.316;2022-07-23T15:02:29;5.60;;;3.10;;
6825;SDS011;3451;52.476;13.316;2022-07-23T15:04:56;3.40;;;2.50;;
6825;SDS011;3451;52.476;13.316;2022-07-23T15:07:27;5.63;;;2.50;;
6825;SDS011;3451;52.476;13.316;2022-07-23T15:09:55;4.70;;;2.10;;
6825;SDS011;3451;52.476;13.316;2022-07-23T15:12:23;4.60;;;2.50;;
6825;SDS011;3451;52.476;13.316;2022-07-23T15:14:50;4.60;;;2.13;;
6825;SDS011;3451;52.476;13.316;2022-07-23T15:17:17;3.30;;;2.30;;
6825;SDS011;3451;52.476;13.316;2022-07-23T15:19:46;4.37;;;2.30;;
6825;SDS011;3451;52.476;13.316;2022-07-23T15:22:14;3.50;;;2.30;;
6825;SDS011;3451;52.476;13.316;2022-07-23T15:24:41;6.17;;;2.50;;
6825;SDS011;3451;52.476;13.316;2022-07-23T15:27:07;3.00;;;2.13;;
6825;SDS011;3451;52.476;13.316;2022-07-23T15:29:34;4.43;;;2.40;;
6825;SDS011;3451;52.476;13.316;2022-07-23T15:32:00;4.10;;;2.50;;
6825;SDS011;3451;52.476;13.316;2022-07-23T15:34:27;5.67;;;4.03;;
6825;SDS011;3451;52.476;13.316;2022-07-23T15:36:53;2.97;;;2.03;;
6825;SDS011;3451;52.476;13.316;2022-07-23T15:39:20;2.87;;;1.90;;
6825;SDS011;3451;52.476;13.316;2022-07-23T15:41:47;2.90;;;1.90;;
6825;SDS011;3451;52.476;13.316;2022-07-23T15:44:13;3.97;;;2.00;;
6825;SDS011;3451;52.476;13.316;2022-07-23T15:46:55;2.03;;;1.70;;
6825;SDS011;3451;52.476;13.316;2022-07-23T15:49:24;3.57;;;2.07;;
6825;SDS011;3451;52.476;13.316;2022-07-23T15:51:52;2.40;;;1.70;;